arxmliv
arxmliv build tool
 
KWARC group
LaTeXML
About
   
 

Detailed info

Back to Homepage

List of missing_macros

No. Date Filename num_warningnum_errornum_xmargok_xmargnum_xmathok_xmathMissing macros
122401 2013-03-07 22:25:23 /0511/math-ph.0511023 730000[\D, \E, \I].
122402 2013-03-07 22:25:14 /0511/math-ph.0511025 110000[{comment}].
122403 2013-03-07 22:23:43 /0511/math-ph.0511005 1640000[Align, \xymatrix, \ar]; 1 missing file[xy.sty].
122404 2013-03-07 22:23:41 /0511/math-ph.0511010 26190000[{lemma}, {theorem}, \EmailD, \LastPageEnding, \Classification, \ArticleDates, \AuthorNameForHeading, \ar, \Abstract, \ArticleName, \ShortArticleName, \FirstPageHeading, \Address, \xymatrix, \Author, Align, {corollary}, \Keywords]; 1 missing file[xy.sty].
122405 2013-03-07 22:22:20 /0511/hep-th.0511301 330000[\extrasenglish, \dateenglish, \captionsenglish].
122406 2013-03-07 22:21:49 /0511/hep-th.0511295 11420000[\@open@row, Align, {comment}, \@close@row, \xymatrix, \ar]; 1 missing file[xy.sty].
122407 2013-03-07 22:21:42 /0511/hep-th.0511294 8810000[\overset].
122408 2013-03-07 22:21:28 /0511/hep-th.0511289 040000[\extrasenglish, \dateenglish, \captionsenglish]; 1 missing file[xy.sty].
122409 2013-03-07 22:21:21 /0511/hep-th.0511296 14450000[\address, \runningheads, {Abstract}, \coauthor, {start}]; 1 missing file[qts-proc.cls].
122410 2013-03-07 22:21:08 /0511/hep-th.0511292 010000[\psfrag].
122411 2013-03-07 22:20:39 /0511/hep-th.0511282 3420000[\underwick].
122412 2013-03-07 22:19:13 /0511/hep-th.0511258 1510000[\mathhexbox].
122413 2013-03-07 22:18:51 /0511/hep-th.0511262 1130000[\Abstract, \ArticleName, \ShortArticleName, \FirstPageHeading, \Address, \LastPageEnding, \Classification, \ArticleDates, \Author, \Email, {remark}, \AuthorNameForHeading, \Keywords].
122414 2013-03-07 22:18:38 /0511/hep-th.0511234 86110000[\Line, \Photon, \SetColor, \Black, \Vertex, \Text, \SetWidth, \DashCArc, \CArc, \PhotonArc, \DashLine].
122415 2013-03-07 22:17:27 /0511/hep-th.0511232 1650000[\address, \runningheads, {Abstract}, \coauthor, {start}]; 1 missing file[qts-proc.cls].
122416 2013-03-07 22:17:19 /0511/hep-th.0511236 2720000[\pscoil]; 1 missing file[pst-coil.sty].
122417 2013-03-07 22:17:11 /0511/hep-th.0511231 250000[\address, \runningheads, {Abstract}, \coauthor, {start}]; 1 missing file[qts-proc.cls].
122418 2013-03-07 22:16:50 /0511/hep-th.0511212 5330000[\xymatrix, \ar]; 1 missing file[xy.sty].
122419 2013-03-07 22:16:47 /0511/hep-th.0511235 030000[\extrasenglish, \dateenglish, \captionsenglish].
122420 2013-03-07 22:16:02 /0511/hep-th.0511210 890000[\rank, \braket, \setZ, \Set, \db, \setR, \set, \di]; 1 missing file[Macros.sty].
122421 2013-03-07 22:16:00 /0511/hep-th.0511207 210000[\citen].
122422 2013-03-07 22:15:47 /0511/hep-th.0511203 26160000[\address, \runningheads, {Abstract}, \coauthor, {start}]; 1 missing file[qts-proc.cls].
122423 2013-03-07 22:15:15 /0511/hep-th.0511187 2550000[\address, \runningheads, {Abstract}, \coauthor, {start}]; 1 missing file[qts-proc-v2.cls].
122424 2013-03-07 22:15:09 /0511/hep-th.0511188 2930000[\catchline, \keywords]; 1 missing file[ws.sty].
122425 2013-03-07 22:15:02 /0511/hep-th.0511119 20730000[\nouppercase].
122426 2013-03-07 22:14:47 /0511/hep-th.0511176 030000[\extrasenglish, \dateenglish, \captionsenglish].
122427 2013-03-07 22:14:34 /0511/hep-th.0511181 3910000[\psfrag].
122428 2013-03-07 22:14:03 /0511/hep-th.0511165 1660000[\TheSbox, {Sbox}]; 1 missing file[xy.sty].
122429 2013-03-07 22:13:48 /0511/hep-th.0511163 3910000[\psfrag].
122430 2013-03-07 22:12:43 /0511/hep-th.0511148 570000[\square]; 1 missing file[pslatex.sty].
122431 2013-03-07 22:12:22 /0511/hep-th.0511116 18830000[{subequations}].
122432 2013-03-07 22:12:09 /0511/hep-th.0511127 100140000[\Line, \GlueArc, \DashArrowLine, \ArrowLine, \Text, \Vertex, \SetWidth, \CCirc, \COval, \SetScale, \DashArrowArc, \SetScaledOffset, \Gluon].
122433 2013-03-07 22:11:28 /0511/hep-th.0511126 12420000[\backslashbox]; 1 missing file[slashbox.sty].
122434 2013-03-07 22:10:35 /0511/hep-th.0511128 2340000[\rauthor, \lat, \PACS, \rtitle].
122435 2013-03-07 22:09:51 /0511/hep-th.0511099 24440000[\leftbracket, \leaderfill, \eqlabeL, \writedef].
122436 2013-03-07 22:09:32 /0511/hep-th.0511121 010000[\theappendix].
122437 2013-03-07 22:09:07 /0511/hep-th.0511113 5110000[\path].
122438 2013-03-07 22:08:47 /0511/hep-th.0511100 82130000[Align, \xymatrix, \ar]; 1 missing file[xy.sty].
122439 2013-03-07 22:07:11 /0511/hep-th.0511088 1710000[\mathfrak].
122440 2013-03-07 22:06:45 /0511/hep-th.0511093 030000[\extrasenglish, \dateenglish, \captionsenglish].
122441 2013-03-07 22:05:45 /0511/hep-th.0511056 8810000[\psfrag].
122442 2013-03-07 22:05:27 /0511/hep-th.0511065 110000[\geometry].
122443 2013-03-07 22:04:58 /0511/hep-th.0511055 740000[\piccaptionoutside, \piccaption, \picskip, \parpic].
122444 2013-03-07 22:04:55 /0511/hep-th.0511044 6230000[\smaller, \setcaptionwidth, \psfrag].
122445 2013-03-07 22:04:48 /0511/hep-th.0511057 6710000[\@@underline].
122446 2013-03-07 22:04:19 /0511/hep-th.0511036 16710000[\psfrag].
122447 2013-03-07 22:03:45 /0511/hep-ph.0511283 300130000[\degrees, \prefacesection, \vitapage, \submitdate, \nnfootnote, \theappendix, \vita, \beforepreface, \afterpreface, \member, \principaladviser, \dept]; 1 missing file[ODUthesis.sty].
122448 2013-03-07 22:03:21 /0511/hep-th.0511049 430000[\inst, {acknowledgement}, \keywords].
122449 2013-03-07 22:03:08 /0511/hep-th.0511053 230000[{theacknowledgments}, \layoutstyle, \classification].
122450 2013-03-07 22:02:13 /0511/hep-th.0511027 1880000[\Black, \Text, \Line, \ArrowArc, \Vertex, \ArrowLine, \SetWidth, \SetColor].
122451 2013-03-07 22:02:09 /0511/hep-th.0511005 9940000[Align, \xymatrix, \ar]; 1 missing file[xy.sty].
122452 2013-03-07 21:59:12 /0511/hep-th.0511001 4750000[Align, \slashed, \xymatrix, \ar]; 1 missing file[xy.sty].
122453 2013-03-07 21:58:27 /0511/hep-ph.0511348 380000[\lesssim, \FullConference, \ShortTitle, \includegraphics, \email, \gtrsim, \PoS, \speaker]; 1 missing file[PoS.cls].
122454 2013-03-07 21:58:21 /0511/hep-ph.0511351 140000[\epsfbox, \abstracts, \epsfxsize]; 1 missing file[ws.sty].
122455 2013-03-07 21:58:05 /0511/hep-ph.0511344 4640000[{sideways}, \hugehead].
122456 2013-03-07 21:57:38 /0511/hep-ph.0511340 1160000[\ArrowLine, \Vertex, \SetWidth, \PText, \Gluon, \DashLine].
122457 2013-03-07 21:57:31 /0511/hep-ph.0511339 220000[\PACS]; 1 missing file[size11.clo.sty].
122458 2013-03-07 21:56:55 /0511/hep-ph.0511347 1170000[\GCirc, \Text, \ArrowLine, \Photon, \SetScale].
122459 2013-03-07 21:56:22 /0511/hep-ph.0511333 24320000[\eqref, \mathbb, \includegraphics, Align, \gtrsim, \abstracts, \text, {align}]; 1 missing file[ws.sty].
122460 2013-03-07 21:56:08 /0511/hep-ph.0511318 1640000[\epsfbox, \abstracts, \epsfxsize]; 1 missing file[ws.sty].
122461 2013-03-07 21:56:06 /0511/hep-ph.0511320 1440000[\preprint, \PACS, \appHuge]; 1 missing file[size11.clo.sty].
122462 2013-03-07 21:56:05 /0511/hep-ph.0511119 6330000[{sidewaystable}, \institute].
122463 2013-03-07 21:55:52 /0511/hep-ph.0511314 66410000[\fmffreeze, {fmffile}, \fmfshift, \fmf, \fmfbottom, \fmfv, \fmftop, \fmfdot, \fmfbottomn, {fmfgraph*}, \fmfleft, \fmftopn, \fmfright, \fmfstraight].
122464 2013-03-07 21:55:41 /0511/hep-ph.0511322 860000[\includegraphics, \ShortTitle, \email, \FullConference, \PoS, \speaker]; 1 missing file[PoS.cls].
122465 2013-03-07 21:55:34 /0511/hep-ph.0511325 1470000[\includegraphics, \ShortTitle, \email, \FullConference, {window}, \speaker]; 2 missing files[picinpar.sty, PoS.cls].
122466 2013-03-07 21:55:20 /0511/hep-ph.0511309 690000[\institute, \runningtitle, {opening}, \keywords, \newdisplay, \includegraphics, \email, \runningauthor, \acknowledgements]; 1 missing file[nato.cls].
122467 2013-03-07 21:54:56 /0511/hep-ph.0511288 22120000[\Line, \PText, \SetColor, \Black, \GCirc, \Text, \COval, \SetWidth, \SetScale, \ZigZag, \GOval, \DashLine].
122468 2013-03-07 21:54:50 /0511/hep-ph.0511316 1550000[\ShortTitle, \email, \FullConference, \PoS, \speaker]; 1 missing file[PoS.cls].
122469 2013-03-07 21:54:41 /0511/hep-ph.0511304 3100000[\eg, \PACS, \psfrag, \ie]; 1 missing file[size11.clo.sty].
122470 2013-03-07 21:54:31 /0511/hep-ph.0511295 8310000[\psfrag].
122471 2013-03-07 21:54:31 /0511/hep-ph.0511303 830000[\pacs, {ack}, \pagerange]; 1 missing file[ActaStyle.cls].
122472 2013-03-07 21:54:15 /0511/hep-ph.0511294 030000[\abstracts, \tbl]; 1 missing file[ws.sty].
122473 2013-03-07 21:54:09 /0511/hep-ph.0511290 1440000[\refer, \pacs, \email, {ack}]; 1 missing file[ActaStyle.cls].
122474 2013-03-07 21:53:57 /0511/hep-ph.0511292 0100000[\issuenumber, \topage, \volnumber, \keyword, \recrevdate, \frompage, \PACS, \authors, \edyear]; 1 missing file[hiph-art.sty].
122475 2013-03-07 21:53:57 /0511/hep-ph.0511296 0110000[Align, \epsfbox, \abstracts, {split}, \backslashbox, \tbl, \epsfxsize]; 2 missing files[ws.sty, slashbox.sty].
122476 2013-03-07 21:53:54 /0511/hep-ph.0511285 2430000[\includegraphics, \abstracts]; 1 missing file[ws.sty].
122477 2013-03-07 21:53:40 /0511/hep-ph.0511278 380000[\includegraphics, \abstracts]; 1 missing file[ws.sty].
122478 2013-03-07 21:53:21 /0511/hep-ph.0511284 850000[\includegraphics, \ShortTitle, \email, \FullConference, \speaker]; 1 missing file[PoS.cls].
122479 2013-03-07 21:53:15 /0511/hep-ph.0511274 16130000[\FullConference, \app, \ap, \ShortTitle, \includegraphics, \email, \PoS, \al, \trans, \speaker]; 1 missing file[PoS.cls].
122480 2013-03-07 21:52:57 /0511/hep-ph.0511260 610000[\sout].
122481 2013-03-07 21:52:49 /0511/hep-ph.0511271 530000[\PACS, \e]; 1 missing file[size11.clo.sty].
122482 2013-03-07 21:52:33 /0511/hep-ph.0511248 2210000[\@cite].
122483 2013-03-07 21:52:22 /0511/hep-ph.0511226 6230000[\slashed, \PACS]; 1 missing file[size11.clo.sty].
122484 2013-03-07 21:52:04 /0511/hep-ph.0511263 620000[\nonum, \ead].
122485 2013-03-07 21:52:00 /0511/hep-ph.0511262 2120000[\layoutstyle, \classification].
122486 2013-03-07 21:51:50 /0511/hep-ph.0511265 450000[\includegraphics, \abstracts, \refcite]; 1 missing file[ws.sty].
122487 2013-03-07 21:51:47 /0511/hep-ph.0511249 740000[\abstracts, \tbl, \refcite]; 1 missing file[ws.sty].
122488 2013-03-07 21:51:40 /0511/hep-ph.0511247 160000[\includegraphics, \abstracts, \cdash, \tbl, \refcite]; 1 missing file[ws.sty].
122489 2013-03-07 21:51:38 /0511/hep-ph.0511251 1750000[\ShortTitle, \email, \FullConference, \PoS, \speaker]; 1 missing file[PoS.cls].
122490 2013-03-07 21:51:11 /0511/hep-ph.0511237 1100000[\issuenumber, \topage, \volnumber, \keyword, \recrevdate, \frompage, \PACS, \authors, \edyear]; 1 missing file[hiph-preprint.sty].
122491 2013-03-07 21:51:08 /0511/hep-ph.0511218 15020000[\citen].
122492 2013-03-07 21:50:58 /0511/hep-ph.0511246 410000[{centering}].
122493 2013-03-07 21:50:54 /0511/hep-ph.0511242 9110000[\issuenumber, \topage, \volnumber, \keyword, \insertplot, \recrevdate, \frompage, \PACS, \authors, \edyear]; 1 missing file[hiph-art.sty].
122494 2013-03-07 21:50:41 /0511/hep-ph.0511228 170000[\includegraphics, \ShortTitle, \email, \FullConference, \PoS, \speaker]; 2 missing files[slashbox.sty, PoS.cls].
122495 2013-03-07 21:50:18 /0511/hep-ph.0511208 38110000[\bm, \ccode, \ddddot, \geqq, \dddot, \refcite, \keywords, \includegraphics, {history}, \because]; 1 missing file[ws.sty].
122496 2013-03-07 21:50:03 /0511/hep-ph.0511220 1100000[\issuenumber, \topage, \volnumber, \keyword, \recrevdate, \frompage, \PACS, \authors, \edyear]; 1 missing file[hiph-preprint.sty].
122497 2013-03-07 21:50:02 /0511/hep-ph.0511235 160000[\includegraphics, \ShortTitle, \email, \FullConference, \PoS, \speaker]; 1 missing file[PoS.cls].
122498 2013-03-07 21:49:54 /0511/hep-ph.0511197 2410000[\Text].
122499 2013-03-07 21:49:54 /0511/hep-ph.0511221 290000[\issuenumber, \topage, \volnumber, \keyword, \frompage, \PACS, \authors, \edyear]; 1 missing file[hiph-preprint.sty].
122500 2013-03-07 21:49:27 /0511/hep-ph.0511211 1060000[\includegraphics, \ShortTitle, \email, \FullConference, \PoS, \speaker]; 1 missing file[PoS.cls].
122501 2013-03-07 21:49:21 /0511/hep-ph.0511212 0100000[\issuenumber, \topage, \volnumber, \keyword, \recrevdate, \frompage, \PACS, \authors, \edyear]; 1 missing file[hiph-art.sty].
122502 2013-03-07 21:49:21 /0511/hep-ph.0511214 1130000[{theacknowledgments}, \layoutstyle, \classification].
122503 2013-03-07 21:49:00 /0511/hep-ph.0511198 130000[\abstracts, \refcite]; 1 missing file[ws.sty].
122504 2013-03-07 21:48:51 /0511/hep-ph.0511189 11230000[\fmffreeze, {fmfchar*}, {fmffile}, \fmf, \fmfset, \fmfleft, \fmfright, \fmfstraight].
122505 2013-03-07 21:48:34 /0511/hep-ph.0511179 2640000[\BoxedEPSF, \SetepsfEPSFSpecial, \HideDisplacementBoxes]; 1 missing file[boxedeps].
122506 2013-03-07 21:48:23 /0511/hep-ph.0511187 940000[\eqsec]; 3 missing files[pst-text.sty, colordvi.sty, pst-3d.sty].
122507 2013-03-07 21:48:18 /0511/hep-ph.0511180 5530000[\layoutstyle, \classification]; 1 missing file[{aipcheck}].
122508 2013-03-07 21:48:15 /0511/hep-ph.0511188 150000[\ShortTitle, \email, \FullConference, \PoS, \speaker]; 1 missing file[PoS.cls].
122509 2013-03-07 21:48:04 /0511/hep-ph.0511193 550000[Align, \abstracts, {split}, \tbl]; 1 missing file[ws.sty].
122510 2013-03-07 21:48:03 /0511/hep-ph.0511182 0250000[\extrasenglish, \dateenglish, \captionsenglish].
122511 2013-03-07 21:47:52 /0511/hep-ph.0511196 030000[\address, \abstracts]; 1 missing file[Blois_modCE.sty].
122512 2013-03-07 21:47:41 /0511/hep-ph.0511178 030000[\address, \abstracts]; 1 missing file[Blois.sty].
122513 2013-03-07 21:47:35 /0511/hep-ph.0511185 530000[\address, \abstracts]; 1 missing file[Blois.sty].
122514 2013-03-07 21:47:33 /0511/hep-ph.0511184 010000[\ead].
122515 2013-03-07 21:47:32 /0511/hep-ph.0511168 3410000[\rput].
122516 2013-03-07 21:47:21 /0511/hep-ph.0511170 3170000[\epsfbox, {tabnote}, \abstracts, \tbl, \epsfxsize]; 1 missing file[ws.sty].
122517 2013-03-07 21:47:14 /0511/hep-ph.0511175 2030000[\bm, \abstracts]; 1 missing file[ws.sty].
122518 2013-03-07 21:47:13 /0511/hep-ph.0511173 830000[\address, \abstracts]; 1 missing file[Blois.sty].
122519 2013-03-07 21:47:01 /0511/hep-ph.0511151 1420000[\Text, \ArrowLine].
122520 2013-03-07 21:46:46 /0511/hep-ph.0511164 330000[\address, \abstracts]; 1 missing file[Blois.sty].
122521 2013-03-07 21:46:39 /0511/hep-ph.0511148 1220000[\address]; 1 missing file[Blois.sty].
122522 2013-03-07 21:46:38 /0511/hep-ph.0511125 103160000[\figurebox, \epsfxsize]; 1 missing file[ws.sty].
122523 2013-03-07 21:46:36 /0511/hep-ph.0511126 2940000[{theacknowledgments}, \layoutstyle, \classification]; 1 missing file[{aipcheck}].
122524 2013-03-07 21:46:16 /0511/hep-ph.0511135 520000[\address]; 1 missing file[Blois.sty].
122525 2013-03-07 21:46:07 /0511/hep-ph.0511127 2320000[\PACS]; 1 missing file[size11.clo.sty].
122526 2013-03-07 21:46:07 /0511/hep-ph.0511128 130000[\psfrag].
122527 2013-03-07 21:46:06 /0511/hep-ph.0511145 0120000[\issuenumber, \topage, \volnumber, \keyword, \epsfbox, \recrevdate, \frompage, \PACS, \authors, \epsfysize, \edyear]; 1 missing file[hiph-art.sty].
122528 2013-03-07 21:46:01 /0511/hep-ph.0511130 030000[\extrasenglish, \dateenglish, \captionsenglish].
122529 2013-03-07 21:46:01 /0511/hep-ph.0511131 020000[\PACS]; 1 missing file[size11.clo.sty].
122530 2013-03-07 21:45:50 /0511/hep-ph.0511132 230000[\PACS, {sideways}]; 1 missing file[size11.clo.sty].
122531 2013-03-07 21:45:47 /0511/hep-ph.0511066 4130000[\FMSlash, \FMslash]; 1 missing file[chay.sty].
122532 2013-03-07 21:45:44 /0511/hep-ph.0511117 230000[\address, \abstracts]; 1 missing file[Blois.sty].
122533 2013-03-07 21:45:44 /0511/hep-ph.0511121 1660000[\Text, \Line, \GCirc, \ArrowLine, \LongArrow, \ZigZag].
122534 2013-03-07 21:45:30 /0511/hep-ph.0511100 3070000[\Text, \ArrowLine, \DashCArc, \SetWidth, \Photon, \DashLine, \Gluon].
122535 2013-03-07 21:45:28 /0511/hep-ph.0511120 360000[\includegraphics, \ShortTitle, \email, \FullConference, \PoS, \speaker]; 1 missing file[PoS.cls].
122536 2013-03-07 21:45:25 /0511/hep-ph.0511122 220000[\abstracts, \refcite].
122537 2013-03-07 21:45:20 /0511/hep-ph.0511087 6050000[\GBoxc, \GCirc, \Text, \Line, \GOval].
122538 2013-03-07 21:45:10 /0511/hep-ph.0511111 1100000[\layoutstyle, {ltxfigure}, \classification]; 1 missing file[{aipcheck}].
122539 2013-03-07 21:45:03 /0511/hep-ph.0511112 910000[\PACS].
122540 2013-03-07 21:44:58 /0511/hep-ph.0511088 1180000[\Line, \Photon, \ArrowLine, \GCirc, \Text, \SetOffset, \LongArrow, \DashLine].
122541 2013-03-07 21:44:55 /0511/hep-ph.0511096 960000[\includegraphics, \ShortTitle, \email, \FullConference, \PoS, \speaker]; 1 missing file[PoS.cls].
122542 2013-03-07 21:44:46 /0511/hep-ph.0511095 130000[\address, \abstracts]; 1 missing file[Blois.sty].
122543 2013-03-07 21:44:28 /0511/hep-ph.0511085 12390000[{multline}, \abstracts]; 1 missing file[ws.sty].
122544 2013-03-07 21:44:18 /0511/hep-ph.0511089 230000[\address, \abstracts]; 1 missing file[Blois.sty].
122545 2013-03-07 21:44:08 /0511/hep-ph.0511073 1110000[\citet].
122546 2013-03-07 21:44:08 /0511/hep-ph.0511078 250000[\ShortTitle, \email, \FullConference, \PoS, \speaker]; 1 missing file[PoS.cls].
122547 2013-03-07 21:43:56 /0511/hep-ph.0511074 6340000[\epsfbox, \abstracts, \epsfxsize]; 1 missing file[ws.sty].
122548 2013-03-07 21:43:41 /0511/hep-ph.0511060 830000[\institute].
122549 2013-03-07 21:43:41 /0511/hep-ph.0511071 510000[\PACS].
122550 2013-03-07 21:43:23 /0511/hep-ph.0511056 020000[\layoutstyle, \classification].
122551 2013-03-07 21:43:13 /0511/hep-ph.0511047 610000[\institute].
122552 2013-03-07 21:42:58 /0511/hep-ph.0511045 0160000[\issuenumber, \topage, \pdfinfo, \volnumber, \pdfadjustspacing, \keyword, \recrevdate, \PACS, \pdfcatalog, \frompage, \pdftexversion, \authors, \pdfcompresslevel, \pdftexrevision, \edyear]; 1 missing file[hiph-preprint.sty].
122553 2013-03-07 21:42:44 /0511/hep-ph.0511030 1550000[\address, \eg, \PACS, \eqsec, \ie]; 1 missing file[appolbHEP.cls].
122554 2013-03-07 21:42:43 /0511/hep-ph.0511049 1030000[\layoutstyle, \classification]; 1 missing file[{aipcheck}].
122555 2013-03-07 21:42:43 /0511/hep-ph.0511051 740000[\wick, \address, \abstracts]; 1 missing file[Blois_modCEdip.sty].
122556 2013-03-07 21:42:30 /0511/hep-ph.0511042 10080000[\ArrowArc, \Text, \Vertex, \ArrowLine, \Photon, \LongArrow, \DashLine]; 1 missing file[Axodraw.sty].
122557 2013-03-07 21:42:08 /0511/hep-ph.0511044 820000[\abstracts, \tbl].
122558 2013-03-07 21:41:54 /0511/hep-ph.0511025 1320000[\abstracts, \tbl].
122559 2013-03-07 21:41:50 /0511/hep-ph.0511032 2650000[\abstracts]; 2 missing files[ws.sty, soul.sty].
122560 2013-03-07 21:41:44 /0511/hep-ph.0511033 1530000[\PACS, \eqsec]; 1 missing file[size11.clo.sty].
122561 2013-03-07 21:41:38 /0511/hep-ph.0511014 1520000[\layoutstyle, \classification].
122562 2013-03-07 21:41:37 /0511/hep-ph.0511021 3820000[\psfrag].
122563 2013-03-07 21:41:35 /0511/hep-ph.0511006 020000[\afterpage]; 1 missing file[afterpage.sty].
122564 2013-03-07 21:41:28 /0511/hep-ph.0511007 3640000[{theacknowledgments}, \layoutstyle, \tablehead, \classification].
122565 2013-03-07 21:41:23 /0511/hep-ph.0511015 310000[\institute].
122566 2013-03-07 21:41:23 /0511/hep-ph.0511017 570000[\epsfbox, \abstracts, \cdash, \text, \refcite, \epsfxsize]; 1 missing file[ws.sty].
122567 2013-03-07 21:41:09 /0511/hep-ph.0511020 330000[\pacs, \email, \pagerange]; 1 missing file[ActaStyle.cls].
122568 2013-03-07 21:41:05 /0511/hep-lat.0511049 1130000[\geometry].
122569 2013-03-07 21:40:55 /0511/hep-ph.0511010 110000[\slashed].
122570 2013-03-07 21:40:52 /0511/hep-ph.0511009 110000[\institute].
122571 2013-03-07 21:40:31 /0511/hep-lat.0511055 360000[\ShortTitle, \href, \email, \FullConference, \PoS, \speaker]; 1 missing file[PoS.cls].
122572 2013-03-07 21:40:29 /0511/hep-lat.0511060 3950000[\ShortTitle, \email, \FullConference, \PoS, \speaker]; 1 missing file[PoS.cls].
122573 2013-03-07 21:40:21 /0511/hep-ph.0511003 840000[\SetInternalRegister, {theacknowledgments}, \layoutstyle, \classification].
122574 2013-03-07 21:40:10 /0511/hep-lat.0511044 860000[\includegraphics, \ShortTitle, \email, \FullConference, \PoS, \speaker]; 1 missing file[PoS.cls].
122575 2013-03-07 21:40:07 /0511/hep-lat.0511048 150000[\ShortTitle, \email, \FullConference, \PoS, \speaker]; 1 missing file[PoS.cls].
122576 2013-03-07 21:39:57 /0511/hep-lat.0511034 250000[\ShortTitle, \email, \FullConference, \PoS, \speaker]; 1 missing file[PoS.cls].
122577 2013-03-07 21:39:55 /0511/hep-lat.0511052 030000[\address, \abstracts]; 1 missing file[DGfest.sty].
122578 2013-03-07 21:39:39 /0511/hep-lat.0511024 250000[\ShortTitle, \email, \FullConference, \PoS, \speaker]; 1 missing file[PoS.cls].
122579 2013-03-07 21:39:36 /0511/hep-lat.0511026 180000[{acknowledgments}, \includegraphics, \ShortTitle, \email, \FullConference, \PoS, \speaker]; 1 missing file[PoS.cls].
122580 2013-03-07 21:39:34 /0511/hep-lat.0511030 420000[\Eins]; 1 missing file[mathbbol.sty].
122581 2013-03-07 21:39:33 /0511/hep-lat.0511033 150000[\ShortTitle, \email, \FullConference, \PoS, \speaker]; 1 missing file[PoS.cls].
122582 2013-03-07 21:39:30 /0511/hep-lat.0511029 120000[\layoutstyle, \classification].
122583 2013-03-07 21:39:29 /0511/hep-lat.0511013 940000[\mathds]; 1 missing file[ccaption.sty].
122584 2013-03-07 21:39:28 /0511/hep-lat.0511027 1270000[{acknowledgments}, \includegraphics, \ShortTitle, \email, \FullConference, \PoS, \speaker]; 1 missing file[PoS.cls].
122585 2013-03-07 21:39:25 /0511/hep-lat.0511028 010000[\@mathmargin].
122586 2013-03-07 21:39:21 /0511/hep-lat.0511032 370000[\ShortTitle, \piccaption, \email, \FullConference, \PoS, \parpic, \speaker]; 1 missing file[PoS.cls].
122587 2013-03-07 21:39:18 /0511/hep-lat.0511020 9120000[\aftertab, \instnr, \lasthline, \beforetab, \midhline, \runningtitle, \captionaftertab, {acknowledge}, \runningauthor, \firsthline, \received, \instlist]; 1 missing file[FBSart.cls].
122588 2013-03-07 21:39:17 /0511/hep-lat.0511017 030000[{theacknowledgments}, \layoutstyle, \classification].
122589 2013-03-07 21:39:16 /0511/hep-lat.0511018 810000[\institute].
122590 2013-03-07 21:39:13 /0511/hep-ex.0511049 8170000[\PRep, \EPJ, \preprint, \Lep, \NIM, \journalname, \CPC, \PRL, \ZfP, \submitted, \citet, \PL, \PR, \NP, \etal]; 2 missing files[Lep.sty, l3_titlePH.sty].
122591 2013-03-07 21:39:11 /0511/hep-lat.0511019 220000[\institute]; 1 missing file[mathbbol.sty].
122592 2013-03-07 21:39:08 /0511/hep-lat.0511004 960000[\ShortTitle, \href, \FullConference, \PoS, \speaker]; 1 missing file[PoS.cls].
122593 2013-03-07 21:39:05 /0511/hep-lat.0511021 040000[\extrasenglish, \geometry, \dateenglish, \captionsenglish].
122594 2013-03-07 21:38:59 /0511/hep-lat.0511005 250000[\ShortTitle, \email, \FullConference, \PoS, \speaker]; 1 missing file[PoS.cls].
122595 2013-03-07 21:38:59 /0511/hep-lat.0511006 6170000[\includegraphics, \ShortTitle, \email, \FullConference, \PoS, \speaker]; 1 missing file[PoS.cls].
122596 2013-03-07 21:38:53 /0511/hep-lat.0511008 570000[\FIGURE, \ShortTitle, \email, \FullConference, \PoS, \speaker]; 1 missing file[PoS.cls].
122597 2013-03-07 21:38:52 /0511/hep-lat.0511012 210000[\institute].
122598 2013-03-07 21:38:51 /0511/hep-ex.0511032 1610000[\institute].
122599 2013-03-07 21:38:48 /0511/hep-lat.0511011 150000[\ShortTitle, \email, \FullConference, \PoS, \speaker]; 1 missing file[PoS.cls].
122600 2013-03-07 21:38:43 /0511/hep-ex.0511061 2020000[\layoutstyle, \classification].
<<< >>>

[0] [200] [400] [600] [800] [1000] [1200] [1400] [1600] [1800] [2000] [2200] [2400] [2600] [2800] [3000] [3200] [3400] [3600] [3800] [4000] [4200] [4400] [4600] [4800] [5000] [5200] [5400] [5600] [5800] [6000] [6200] [6400] [6600] [6800] [7000] [7200] [7400] [7600] [7800] [8000] [8200] [8400] [8600] [8800] [9000] [9200] [9400] [9600] [9800] [10000] [10200] [10400] [10600] [10800] [11000] [11200] [11400] [11600] [11800] [12000] [12200] [12400] [12600] [12800] [13000] [13200] [13400] [13600] [13800] [14000] [14200] [14400] [14600] [14800] [15000] [15200] [15400] [15600] [15800] [16000] [16200] [16400] [16600] [16800] [17000] [17200] [17400] [17600] [17800] [18000] [18200] [18400] [18600] [18800] [19000] [19200] [19400] [19600] [19800] [20000] [20200] [20400] [20600] [20800] [21000] [21200] [21400] [21600] [21800] [22000] [22200] [22400] [22600] [22800] [23000] [23200] [23400] [23600] [23800] [24000] [24200] [24400] [24600] [24800] [25000] [25200] [25400] [25600] [25800] [26000] [26200] [26400] [26600] [26800] [27000] [27200] [27400] [27600] [27800] [28000] [28200] [28400] [28600] [28800] [29000] [29200] [29400] [29600] [29800] [30000] [30200] [30400] [30600] [30800] [31000] [31200] [31400] [31600] [31800] [32000] [32200] [32400] [32600] [32800] [33000] [33200] [33400] [33600] [33800] [34000] [34200] [34400] [34600] [34800] [35000] [35200] [35400] [35600] [35800] [36000] [36200] [36400] [36600] [36800] [37000] [37200] [37400] [37600] [37800] [38000] [38200] [38400] [38600] [38800] [39000] [39200] [39400] [39600] [39800] [40000] [40200] [40400] [40600] [40800] [41000] [41200] [41400] [41600] [41800] [42000] [42200] [42400] [42600] [42800] [43000] [43200] [43400] [43600] [43800] [44000] [44200] [44400] [44600] [44800] [45000] [45200] [45400] [45600] [45800] [46000] [46200] [46400] [46600] [46800] [47000] [47200] [47400] [47600] [47800] [48000] [48200] [48400] [48600] [48800] [49000] [49200] [49400] [49600] [49800] [50000] [50200] [50400] [50600] [50800] [51000] [51200] [51400] [51600] [51800] [52000] [52200] [52400] [52600] [52800] [53000] [53200] [53400] [53600] [53800] [54000] [54200] [54400] [54600] [54800] [55000] [55200] [55400] [55600] [55800] [56000] [56200] [56400] [56600] [56800] [57000] [57200] [57400] [57600] [57800] [58000] [58200] [58400] [58600] [58800] [59000] [59200] [59400] [59600] [59800] [60000] [60200] [60400] [60600] [60800] [61000] [61200] [61400] [61600] [61800] [62000] [62200] [62400] [62600] [62800] [63000] [63200] [63400] [63600] [63800] [64000] [64200] [64400] [64600] [64800] [65000] [65200] [65400] [65600] [65800] [66000] [66200] [66400] [66600] [66800] [67000] [67200] [67400] [67600] [67800] [68000] [68200] [68400] [68600] [68800] [69000] [69200] [69400] [69600] [69800] [70000] [70200] [70400] [70600] [70800] [71000] [71200] [71400] [71600] [71800] [72000] [72200] [72400] [72600] [72800] [73000] [73200] [73400] [73600] [73800] [74000] [74200] [74400] [74600] [74800] [75000] [75200] [75400] [75600] [75800] [76000] [76200] [76400] [76600] [76800] [77000] [77200] [77400] [77600] [77800] [78000] [78200] [78400] [78600] [78800] [79000] [79200] [79400] [79600] [79800] [80000] [80200] [80400] [80600] [80800] [81000] [81200] [81400] [81600] [81800] [82000] [82200] [82400] [82600] [82800] [83000] [83200] [83400] [83600] [83800] [84000] [84200] [84400] [84600] [84800] [85000] [85200] [85400] [85600] [85800] [86000] [86200] [86400] [86600] [86800] [87000] [87200] [87400] [87600] [87800] [88000] [88200] [88400] [88600] [88800] [89000] [89200] [89400] [89600] [89800] [90000] [90200] [90400] [90600] [90800] [91000] [91200] [91400] [91600] [91800] [92000] [92200] [92400] [92600] [92800] [93000] [93200] [93400] [93600] [93800] [94000] [94200] [94400] [94600] [94800] [95000] [95200] [95400] [95600] [95800] [96000] [96200] [96400] [96600] [96800] [97000] [97200] [97400] [97600] [97800] [98000] [98200] [98400] [98600] [98800] [99000] [99200] [99400] [99600] [99800] [100000] [100200] [100400] [100600] [100800] [101000] [101200] [101400] [101600] [101800] [102000] [102200] [102400] [102600] [102800] [103000] [103200] [103400] [103600] [103800] [104000] [104200] [104400] [104600] [104800] [105000] [105200] [105400] [105600] [105800] [106000] [106200] [106400] [106600] [106800] [107000] [107200] [107400] [107600] [107800] [108000] [108200] [108400] [108600] [108800] [109000] [109200] [109400] [109600] [109800] [110000] [110200] [110400] [110600] [110800] [111000] [111200] [111400] [111600] [111800] [112000] [112200] [112400] [112600] [112800] [113000] [113200] [113400] [113600] [113800] [114000] [114200] [114400] [114600] [114800] [115000] [115200] [115400] [115600] [115800] [116000] [116200] [116400] [116600] [116800] [117000] [117200] [117400] [117600] [117800] [118000] [118200] [118400] [118600] [118800] [119000] [119200] [119400] [119600] [119800] [120000] [120200] [120400] [120600] [120800] [121000] [121200] [121400] [121600] [121800] [122000] [122200] [122400] [122600] [122800] [123000] [123200] [123400] [123600] [123800] [124000] [124200] [124400] [124600] [124800] [125000] [125200] [125400] [125600] [125800] [126000] [126200] [126400] [126600] [126800] [127000] [127200] [127400] [127600] [127800] [128000] [128200] [128400] [128600] [128800] [129000] [129200] [129400] [129600] [129800] [130000] [130200] [130400] [130600] [130800] [131000] [131200] [131400] [131600] [131800] [132000] [132200] [132400] [132600] [132800] [133000] [133200] [133400] [133600] [133800] [134000] [134200] [134400] [134600] [134800] [135000] [135200] [135400] [135600] [135800] [136000] [136200] [136400] [136600] [136800] [137000] [137200] [137400] [137600] [137800] [138000] [138200] [138400] [138600] [138800] [139000] [139200] [139400] [139600] [139800] [140000] [140200] [140400] [140600] [140800] [141000] [141200] [141400] [141600] [141800] [142000] [142200] [142400] [142600] [142800] [143000] [143200] [143400] [143600] [143800] [144000] [144200] [144400] [144600] [144800] [145000] [145200] [145400] [145600] [145800] [146000] [146200] [146400] [146600] [146800] [147000] [147200] [147400] [147600] [147800] [148000] [148200] [148400] [148600] [148800] [149000] [149200] [149400] [149600] [149800] [150000] [150200] [150400] [150600] [150800] [151000] [151200] [151400] [151600] [151800] [152000] [152200] [152400] [152600] [152800] [153000] [153200] [153400] [153600] [153800] [154000] [154200] [154400] [154600] [154800] [155000] [155200] [155400] [155600] [155800] [156000] [156200] [156400] [156600] [156800] [157000] [157200] [157400] [157600] [157800] [158000] [158200] [158400] [158600] [158800] [159000] [159200] [159400] [159600] [159800] [160000] [160200] [160400] [160600] [160800] [161000] [161200] [161400] [161600] [161800] [162000] [162200] [162400] [162600] [162800] [163000] [163200] [163400] [163600] [163800] [164000] [164200] [164400] [164600]
 
  The service has been written by
Heinrich Stamerjohanns